sensor_id;sensor_type;location;lat;lon;timestamp;P1;durP1;ratioP1;P2;durP2;ratioP2
55913;SDS011;58179;48.776;9.124;2022-09-03T00:00:28;3.15;;;2.00;;
55913;SDS011;58179;48.776;9.124;2022-09-03T00:02:58;10.18;;;2.00;;
55913;SDS011;58179;48.776;9.124;2022-09-03T00:05:30;8.43;;;1.73;;
55913;SDS011;58179;48.776;9.124;2022-09-03T00:08:03;5.00;;;1.90;;
55913;SDS011;58179;48.776;9.124;2022-09-03T00:10:41;2.55;;;1.70;;
55913;SDS011;58179;48.776;9.124;2022-09-03T00:13:15;3.55;;;2.03;;
55913;SDS011;58179;48.776;9.124;2022-09-03T00:15:47;6.47;;;1.88;;
55913;SDS011;58179;48.776;9.124;2022-09-03T00:18:16;6.83;;;1.80;;
55913;SDS011;58179;48.776;9.124;2022-09-03T00:20:48;4.03;;;2.20;;
55913;SDS011;58179;48.776;9.124;2022-09-03T00:23:18;5.22;;;1.90;;
55913;SDS011;58179;48.776;9.124;2022-09-03T00:25:50;3.45;;;1.90;;
55913;SDS011;58179;48.776;9.124;2022-09-03T00:28:25;3.30;;;1.80;;
55913;SDS011;58179;48.776;9.124;2022-09-03T00:31:00;5.68;;;1.92;;
55913;SDS011;58179;48.776;9.124;2022-09-03T00:33:31;3.65;;;2.10;;
55913;SDS011;58179;48.776;9.124;2022-09-03T00:36:03;7.05;;;1.92;;
55913;SDS011;58179;48.776;9.124;2022-09-03T00:38:36;5.15;;;1.90;;
55913;SDS011;58179;48.776;9.124;2022-09-03T00:41:05;6.28;;;2.00;;
55913;SDS011;58179;48.776;9.124;2022-09-03T00:43:44;3.17;;;1.80;;
55913;SDS011;58179;48.776;9.124;2022-09-03T00:46:29;4.03;;;2.10;;
55913;SDS011;58179;48.776;9.124;2022-09-03T00:49:07;4.03;;;2.05;;
55913;SDS011;58179;48.776;9.124;2022-09-03T00:51:49;4.40;;;2.03;;
55913;SDS011;58179;48.776;9.124;2022-09-03T00:54:27;6.95;;;2.03;;
55913;SDS011;58179;48.776;9.124;2022-09-03T00:57:09;3.40;;;2.53;;
55913;SDS011;58179;48.776;9.124;2022-09-03T00:59:50;8.13;;;2.07;;
55913;SDS011;58179;48.776;9.124;2022-09-03T01:02:26;4.45;;;1.92;;
55913;SDS011;58179;48.776;9.124;2022-09-03T01:05:03;5.03;;;2.10;;
55913;SDS011;58179;48.776;9.124;2022-09-03T01:07:36;3.65;;;1.98;;
55913;SDS011;58179;48.776;9.124;2022-09-03T01:10:15;5.63;;;1.83;;
55913;SDS011;58179;48.776;9.124;2022-09-03T01:12:59;7.20;;;2.13;;
55913;SDS011;58179;48.776;9.124;2022-09-03T01:15:35;6.70;;;1.80;;
55913;SDS011;58179;48.776;9.124;2022-09-03T01:18:15;4.53;;;1.80;;
55913;SDS011;58179;48.776;9.124;2022-09-03T01:20:52;3.83;;;1.77;;
55913;SDS011;58179;48.776;9.124;2022-09-03T01:23:42;4.65;;;1.67;;
55913;SDS011;58179;48.776;9.124;2022-09-03T01:26:35;5.78;;;1.73;;
55913;SDS011;58179;48.776;9.124;2022-09-03T01:29:22;5.15;;;1.80;;
55913;SDS011;58179;48.776;9.124;2022-09-03T01:31:56;4.93;;;1.95;;
55913;SDS011;58179;48.776;9.124;2022-09-03T01:34:35;2.70;;;1.70;;
55913;SDS011;58179;48.776;9.124;2022-09-03T01:37:18;6.45;;;2.03;;
55913;SDS011;58179;48.776;9.124;2022-09-03T01:39:58;7.28;;;1.88;;
55913;SDS011;58179;48.776;9.124;2022-09-03T01:42:38;2.72;;;1.85;;
55913;SDS011;58179;48.776;9.124;2022-09-03T01:45:22;5.80;;;1.88;;
55913;SDS011;58179;48.776;9.124;2022-09-03T01:48:10;8.00;;;2.00;;
55913;SDS011;58179;48.776;9.124;2022-09-03T01:50:55;4.45;;;1.90;;
55913;SDS011;58179;48.776;9.124;2022-09-03T01:53:33;6.68;;;2.08;;
55913;SDS011;58179;48.776;9.124;2022-09-03T01:59:06;6.28;;;2.00;;
55913;SDS011;58179;48.776;9.124;2022-09-03T02:01:44;5.60;;;1.60;;
55913;SDS011;58179;48.776;9.124;2022-09-03T02:04:18;4.75;;;1.92;;
55913;SDS011;58179;48.776;9.124;2022-09-03T02:06:49;3.72;;;1.83;;
55913;SDS011;58179;48.776;9.124;2022-09-03T02:09:16;4.63;;;1.97;;
55913;SDS011;58179;48.776;9.124;2022-09-03T02:11:43;3.67;;;1.90;;
55913;SDS011;58179;48.776;9.124;2022-09-03T02:14:17;8.38;;;1.98;;
55913;SDS011;58179;48.776;9.124;2022-09-03T02:16:45;4.10;;;1.90;;
55913;SDS011;58179;48.776;9.124;2022-09-03T02:19:12;4.13;;;2.40;;
55913;SDS011;58179;48.776;9.124;2022-09-03T02:21:42;3.90;;;1.73;;
55913;SDS011;58179;48.776;9.124;2022-09-03T02:24:14;4.57;;;1.83;;
55913;SDS011;58179;48.776;9.124;2022-09-03T02:26:40;3.53;;;1.75;;
55913;SDS011;58179;48.776;9.124;2022-09-03T02:29:06;4.07;;;1.90;;
55913;SDS011;58179;48.776;9.124;2022-09-03T02:31:32;4.00;;;2.08;;
55913;SDS011;58179;48.776;9.124;2022-09-03T02:33:59;4.53;;;1.70;;
55913;SDS011;58179;48.776;9.124;2022-09-03T02:36:27;5.50;;;2.03;;
55913;SDS011;58179;48.776;9.124;2022-09-03T02:38:56;3.93;;;1.70;;
55913;SDS011;58179;48.776;9.124;2022-09-03T02:41:22;4.95;;;2.00;;
55913;SDS011;58179;48.776;9.124;2022-09-03T02:43:52;5.30;;;1.85;;
55913;SDS011;58179;48.776;9.124;2022-09-03T02:46:24;4.05;;;2.15;;
55913;SDS011;58179;48.776;9.124;2022-09-03T02:48:59;3.33;;;2.30;;
55913;SDS011;58179;48.776;9.124;2022-09-03T02:51:25;6.00;;;2.30;;
55913;SDS011;58179;48.776;9.124;2022-09-03T02:53:55;4.65;;;1.80;;
55913;SDS011;58179;48.776;9.124;2022-09-03T02:56:21;2.33;;;2.00;;
55913;SDS011;58179;48.776;9.124;2022-09-03T02:58:49;6.13;;;1.90;;
55913;SDS011;58179;48.776;9.124;2022-09-03T03:01:15;5.13;;;1.90;;
55913;SDS011;58179;48.776;9.124;2022-09-03T03:03:41;5.97;;;1.88;;
55913;SDS011;58179;48.776;9.124;2022-09-03T03:06:09;4.30;;;2.03;;
55913;SDS011;58179;48.776;9.124;2022-09-03T03:08:36;3.35;;;1.98;;
55913;SDS011;58179;48.776;9.124;2022-09-03T03:11:02;6.30;;;2.30;;
55913;SDS011;58179;48.776;9.124;2022-09-03T03:13:29;5.40;;;2.10;;
55913;SDS011;58179;48.776;9.124;2022-09-03T03:15:56;4.03;;;2.20;;
55913;SDS011;58179;48.776;9.124;2022-09-03T03:18:23;6.20;;;2.08;;
55913;SDS011;58179;48.776;9.124;2022-09-03T03:20:49;4.18;;;2.10;;
55913;SDS011;58179;48.776;9.124;2022-09-03T03:23:16;4.05;;;2.20;;
55913;SDS011;58179;48.776;9.124;2022-09-03T03:25:42;2.25;;;1.90;;
55913;SDS011;58179;48.776;9.124;2022-09-03T03:28:08;3.80;;;2.30;;
55913;SDS011;58179;48.776;9.124;2022-09-03T03:30:35;3.72;;;2.10;;
55913;SDS011;58179;48.776;9.124;2022-09-03T03:33:03;3.55;;;2.40;;
55913;SDS011;58179;48.776;9.124;2022-09-03T03:35:31;4.63;;;2.50;;
55913;SDS011;58179;48.776;9.124;2022-09-03T03:37:57;4.72;;;2.30;;
55913;SDS011;58179;48.776;9.124;2022-09-03T03:40:25;4.88;;;2.50;;
55913;SDS011;58179;48.776;9.124;2022-09-03T03:42:51;2.80;;;2.20;;
55913;SDS011;58179;48.776;9.124;2022-09-03T03:45:17;7.55;;;2.45;;
55913;SDS011;58179;48.776;9.124;2022-09-03T03:47:44;3.05;;;2.05;;
55913;SDS011;58179;48.776;9.124;2022-09-03T03:50:10;6.65;;;2.35;;
55913;SDS011;58179;48.776;9.124;2022-09-03T03:52:35;5.57;;;1.98;;
55913;SDS011;58179;48.776;9.124;2022-09-03T03:55:02;4.85;;;2.17;;
55913;SDS011;58179;48.776;9.124;2022-09-03T03:57:30;6.07;;;2.50;;
55913;SDS011;58179;48.776;9.124;2022-09-03T03:59:56;2.58;;;2.05;;
55913;SDS011;58179;48.776;9.124;2022-09-03T04:02:22;4.85;;;2.22;;
55913;SDS011;58179;48.776;9.124;2022-09-03T04:04:48;3.08;;;2.30;;
55913;SDS011;58179;48.776;9.124;2022-09-03T04:07:14;3.92;;;1.98;;
55913;SDS011;58179;48.776;9.124;2022-09-03T04:09:40;6.38;;;2.40;;
55913;SDS011;58179;48.776;9.124;2022-09-03T04:12:06;5.97;;;2.20;;
55913;SDS011;58179;48.776;9.124;2022-09-03T04:14:34;2.80;;;2.05;;
55913;SDS011;58179;48.776;9.124;2022-09-03T04:17:00;3.60;;;2.20;;
55913;SDS011;58179;48.776;9.124;2022-09-03T04:19:27;3.67;;;2.28;;
55913;SDS011;58179;48.776;9.124;2022-09-03T04:21:55;3.30;;;2.10;;
55913;SDS011;58179;48.776;9.124;2022-09-03T04:24:21;4.38;;;2.13;;
55913;SDS011;58179;48.776;9.124;2022-09-03T04:26:47;4.70;;;2.33;;
55913;SDS011;58179;48.776;9.124;2022-09-03T04:29:14;3.78;;;2.25;;
55913;SDS011;58179;48.776;9.124;2022-09-03T04:31:41;4.47;;;2.40;;
55913;SDS011;58179;48.776;9.124;2022-09-03T04:34:27;5.82;;;2.50;;
55913;SDS011;58179;48.776;9.124;2022-09-03T04:36:53;5.65;;;2.33;;
55913;SDS011;58179;48.776;9.124;2022-09-03T04:39:22;3.65;;;2.60;;
55913;SDS011;58179;48.776;9.124;2022-09-03T04:41:47;6.03;;;2.50;;
55913;SDS011;58179;48.776;9.124;2022-09-03T04:44:13;6.93;;;2.40;;
55913;SDS011;58179;48.776;9.124;2022-09-03T04:46:41;5.43;;;2.30;;
55913;SDS011;58179;48.776;9.124;2022-09-03T04:49:08;5.15;;;2.60;;
55913;SDS011;58179;48.776;9.124;2022-09-03T04:51:34;4.38;;;2.30;;
55913;SDS011;58179;48.776;9.124;2022-09-03T04:54:02;3.97;;;2.50;;
55913;SDS011;58179;48.776;9.124;2022-09-03T04:56:31;3.95;;;2.20;;
55913;SDS011;58179;48.776;9.124;2022-09-03T04:58:59;7.30;;;2.60;;
55913;SDS011;58179;48.776;9.124;2022-09-03T05:01:27;6.82;;;2.40;;
55913;SDS011;58179;48.776;9.124;2022-09-03T05:03:57;3.35;;;2.50;;
55913;SDS011;58179;48.776;9.124;2022-09-03T05:06:24;3.60;;;2.40;;
55913;SDS011;58179;48.776;9.124;2022-09-03T05:08:51;3.53;;;2.40;;
55913;SDS011;58179;48.776;9.124;2022-09-03T05:11:18;5.43;;;2.60;;
55913;SDS011;58179;48.776;9.124;2022-09-03T05:13:45;6.63;;;2.80;;
55913;SDS011;58179;48.776;9.124;2022-09-03T05:16:13;6.38;;;2.60;;
55913;SDS011;58179;48.776;9.124;2022-09-03T05:18:39;4.05;;;2.80;;
55913;SDS011;58179;48.776;9.124;2022-09-03T05:21:08;4.18;;;2.78;;
55913;SDS011;58179;48.776;9.124;2022-09-03T05:23:37;5.40;;;3.20;;
55913;SDS011;58179;48.776;9.124;2022-09-03T05:26:07;4.15;;;3.10;;
55913;SDS011;58179;48.776;9.124;2022-09-03T05:28:36;4.20;;;2.35;;
55913;SDS011;58179;48.776;9.124;2022-09-03T05:31:05;3.30;;;2.67;;
55913;SDS011;58179;48.776;9.124;2022-09-03T05:33:33;3.38;;;2.67;;
55913;SDS011;58179;48.776;9.124;2022-09-03T05:35:59;4.30;;;2.80;;
55913;SDS011;58179;48.776;9.124;2022-09-03T05:38:29;5.60;;;2.65;;
55913;SDS011;58179;48.776;9.124;2022-09-03T05:40:56;4.70;;;2.50;;
55913;SDS011;58179;48.776;9.124;2022-09-03T05:43:23;6.97;;;2.38;;
55913;SDS011;58179;48.776;9.124;2022-09-03T05:45:49;5.60;;;2.70;;
55913;SDS011;58179;48.776;9.124;2022-09-03T05:48:15;4.07;;;2.28;;
55913;SDS011;58179;48.776;9.124;2022-09-03T05:50:41;7.40;;;2.33;;
55913;SDS011;58179;48.776;9.124;2022-09-03T05:53:07;3.47;;;2.70;;
55913;SDS011;58179;48.776;9.124;2022-09-03T05:55:34;4.15;;;2.85;;
55913;SDS011;58179;48.776;9.124;2022-09-03T05:58:00;5.90;;;3.00;;
55913;SDS011;58179;48.776;9.124;2022-09-03T06:00:26;8.33;;;2.90;;
55913;SDS011;58179;48.776;9.124;2022-09-03T06:02:52;6.45;;;3.30;;
55913;SDS011;58179;48.776;9.124;2022-09-03T06:05:19;4.20;;;3.20;;
55913;SDS011;58179;48.776;9.124;2022-09-03T06:07:45;8.57;;;3.00;;
55913;SDS011;58179;48.776;9.124;2022-09-03T06:10:13;7.30;;;2.53;;
55913;SDS011;58179;48.776;9.124;2022-09-03T06:12:42;5.90;;;2.70;;
55913;SDS011;58179;48.776;9.124;2022-09-03T06:15:13;5.75;;;2.53;;
55913;SDS011;58179;48.776;9.124;2022-09-03T06:17:40;5.70;;;2.70;;
55913;SDS011;58179;48.776;9.124;2022-09-03T06:20:06;5.03;;;2.67;;
55913;SDS011;58179;48.776;9.124;2022-09-03T06:22:33;6.60;;;2.85;;
55913;SDS011;58179;48.776;9.124;2022-09-03T06:24:59;10.48;;;3.28;;
55913;SDS011;58179;48.776;9.124;2022-09-03T06:27:27;5.40;;;2.65;;
55913;SDS011;58179;48.776;9.124;2022-09-03T06:29:54;5.30;;;3.03;;
55913;SDS011;58179;48.776;9.124;2022-09-03T06:32:22;5.57;;;3.20;;
55913;SDS011;58179;48.776;9.124;2022-09-03T06:34:48;8.37;;;2.87;;
55913;SDS011;58179;48.776;9.124;2022-09-03T06:37:14;8.88;;;2.97;;
55913;SDS011;58179;48.776;9.124;2022-09-03T06:39:40;5.75;;;2.90;;
55913;SDS011;58179;48.776;9.124;2022-09-03T06:42:06;7.03;;;3.45;;
55913;SDS011;58179;48.776;9.124;2022-09-03T06:44:33;7.25;;;2.92;;
55913;SDS011;58179;48.776;9.124;2022-09-03T06:47:01;5.38;;;2.92;;
55913;SDS011;58179;48.776;9.124;2022-09-03T06:49:27;7.07;;;2.95;;
55913;SDS011;58179;48.776;9.124;2022-09-03T06:51:53;4.57;;;2.90;;
55913;SDS011;58179;48.776;9.124;2022-09-03T06:54:18;6.80;;;2.87;;
55913;SDS011;58179;48.776;9.124;2022-09-03T06:56:44;7.25;;;3.47;;
55913;SDS011;58179;48.776;9.124;2022-09-03T06:59:11;4.97;;;3.15;;
55913;SDS011;58179;48.776;9.124;2022-09-03T07:01:38;8.98;;;3.58;;
55913;SDS011;58179;48.776;9.124;2022-09-03T07:04:06;7.10;;;3.40;;
55913;SDS011;58179;48.776;9.124;2022-09-03T07:06:34;6.28;;;3.53;;
55913;SDS011;58179;48.776;9.124;2022-09-03T07:09:02;5.57;;;3.50;;
55913;SDS011;58179;48.776;9.124;2022-09-03T07:11:29;6.45;;;3.45;;
55913;SDS011;58179;48.776;9.124;2022-09-03T07:13:57;5.90;;;3.80;;
55913;SDS011;58179;48.776;9.124;2022-09-03T07:16:25;8.27;;;3.65;;
55913;SDS011;58179;48.776;9.124;2022-09-03T07:18:53;6.83;;;3.43;;
55913;SDS011;58179;48.776;9.124;2022-09-03T07:21:22;5.10;;;3.55;;
55913;SDS011;58179;48.776;9.124;2022-09-03T07:23:50;6.07;;;3.40;;
55913;SDS011;58179;48.776;9.124;2022-09-03T07:26:18;3.90;;;3.38;;
55913;SDS011;58179;48.776;9.124;2022-09-03T07:28:45;4.95;;;3.15;;
55913;SDS011;58179;48.776;9.124;2022-09-03T07:31:13;7.17;;;3.43;;
55913;SDS011;58179;48.776;9.124;2022-09-03T07:33:49;5.28;;;3.65;;
55913;SDS011;58179;48.776;9.124;2022-09-03T07:36:18;4.47;;;3.60;;
55913;SDS011;58179;48.776;9.124;2022-09-03T07:38:46;6.18;;;3.72;;
55913;SDS011;58179;48.776;9.124;2022-09-03T07:41:13;4.93;;;3.50;;
55913;SDS011;58179;48.776;9.124;2022-09-03T07:43:40;7.78;;;3.30;;
55913;SDS011;58179;48.776;9.124;2022-09-03T07:46:08;5.73;;;3.20;;
55913;SDS011;58179;48.776;9.124;2022-09-03T07:48:37;4.87;;;3.40;;
55913;SDS011;58179;48.776;9.124;2022-09-03T07:51:03;7.65;;;3.50;;
55913;SDS011;58179;48.776;9.124;2022-09-03T07:53:29;5.40;;;3.40;;
55913;SDS011;58179;48.776;9.124;2022-09-03T07:56:01;3.80;;;3.37;;
55913;SDS011;58179;48.776;9.124;2022-09-03T07:58:29;4.55;;;3.63;;
55913;SDS011;58179;48.776;9.124;2022-09-03T08:00:55;4.77;;;3.40;;
55913;SDS011;58179;48.776;9.124;2022-09-03T08:03:21;6.45;;;3.25;;
55913;SDS011;58179;48.776;9.124;2022-09-03T08:05:47;5.97;;;3.60;;
55913;SDS011;58179;48.776;9.124;2022-09-03T08:08:13;5.03;;;3.13;;
55913;SDS011;58179;48.776;9.124;2022-09-03T08:10:41;5.72;;;3.55;;
55913;SDS011;58179;48.776;9.124;2022-09-03T08:13:09;6.50;;;3.53;;
55913;SDS011;58179;48.776;9.124;2022-09-03T08:15:35;10.55;;;3.42;;
55913;SDS011;58179;48.776;9.124;2022-09-03T08:18:04;4.43;;;3.30;;
55913;SDS011;58179;48.776;9.124;2022-09-03T08:20:30;4.40;;;3.33;;
55913;SDS011;58179;48.776;9.124;2022-09-03T08:22:59;4.50;;;3.50;;
55913;SDS011;58179;48.776;9.124;2022-09-03T08:25:26;5.63;;;3.47;;
55913;SDS011;58179;48.776;9.124;2022-09-03T08:27:53;3.90;;;3.40;;
55913;SDS011;58179;48.776;9.124;2022-09-03T08:30:23;3.23;;;2.90;;
55913;SDS011;58179;48.776;9.124;2022-09-03T08:32:50;3.95;;;3.13;;
55913;SDS011;58179;48.776;9.124;2022-09-03T08:35:16;3.30;;;3.00;;
55913;SDS011;58179;48.776;9.124;2022-09-03T08:37:42;4.55;;;3.38;;
55913;SDS011;58179;48.776;9.124;2022-09-03T08:40:08;3.20;;;2.70;;
55913;SDS011;58179;48.776;9.124;2022-09-03T08:42:44;5.20;;;2.95;;
55913;SDS011;58179;48.776;9.124;2022-09-03T08:45:22;5.63;;;2.88;;
55913;SDS011;58179;48.776;9.124;2022-09-03T08:47:51;6.63;;;2.90;;
55913;SDS011;58179;48.776;9.124;2022-09-03T08:50:27;2.78;;;2.40;;
55913;SDS011;58179;48.776;9.124;2022-09-03T08:52:59;3.50;;;2.78;;
55913;SDS011;58179;48.776;9.124;2022-09-03T08:55:34;6.68;;;3.00;;
55913;SDS011;58179;48.776;9.124;2022-09-03T08:58:08;4.32;;;2.88;;
55913;SDS011;58179;48.776;9.124;2022-09-03T09:00:44;4.97;;;2.85;;
55913;SDS011;58179;48.776;9.124;2022-09-03T09:03:22;4.22;;;3.00;;
55913;SDS011;58179;48.776;9.124;2022-09-03T09:06:07;5.55;;;3.08;;
55913;SDS011;58179;48.776;9.124;2022-09-03T09:08:47;6.53;;;3.35;;
55913;SDS011;58179;48.776;9.124;2022-09-03T09:11:32;3.65;;;3.13;;
55913;SDS011;58179;48.776;9.124;2022-09-03T09:14:12;4.25;;;3.33;;
55913;SDS011;58179;48.776;9.124;2022-09-03T09:16:49;5.65;;;3.53;;
55913;SDS011;58179;48.776;9.124;2022-09-03T09:19:30;5.57;;;3.10;;
55913;SDS011;58179;48.776;9.124;2022-09-03T09:22:07;5.57;;;3.40;;
55913;SDS011;58179;48.776;9.124;2022-09-03T09:24:38;4.88;;;3.25;;
55913;SDS011;58179;48.776;9.124;2022-09-03T09:27:08;5.57;;;3.03;;
55913;SDS011;58179;48.776;9.124;2022-09-03T09:29:40;4.97;;;3.10;;
55913;SDS011;58179;48.776;9.124;2022-09-03T09:32:11;4.75;;;3.28;;
55913;SDS011;58179;48.776;9.124;2022-09-03T09:34:39;6.30;;;3.22;;
55913;SDS011;58179;48.776;9.124;2022-09-03T09:37:09;5.07;;;3.38;;
55913;SDS011;58179;48.776;9.124;2022-09-03T09:39:37;4.57;;;3.00;;
55913;SDS011;58179;48.776;9.124;2022-09-03T09:42:05;6.43;;;3.33;;
55913;SDS011;58179;48.776;9.124;2022-09-03T09:44:33;5.38;;;2.72;;
55913;SDS011;58179;48.776;9.124;2022-09-03T09:47:01;3.45;;;2.75;;
55913;SDS011;58179;48.776;9.124;2022-09-03T09:49:33;5.45;;;3.00;;
55913;SDS011;58179;48.776;9.124;2022-09-03T09:52:02;5.43;;;2.93;;
55913;SDS011;58179;48.776;9.124;2022-09-03T09:54:31;3.85;;;2.85;;
55913;SDS011;58179;48.776;9.124;2022-09-03T09:56:58;6.07;;;2.80;;
55913;SDS011;58179;48.776;9.124;2022-09-03T09:59:27;5.43;;;2.85;;
55913;SDS011;58179;48.776;9.124;2022-09-03T10:02:03;4.63;;;2.93;;
55913;SDS011;58179;48.776;9.124;2022-09-03T10:04:37;6.78;;;2.85;;
55913;SDS011;58179;48.776;9.124;2022-09-03T10:07:16;4.88;;;2.70;;
55913;SDS011;58179;48.776;9.124;2022-09-03T10:09:58;4.38;;;2.80;;
55913;SDS011;58179;48.776;9.124;2022-09-03T10:12:27;5.75;;;3.25;;
55913;SDS011;58179;48.776;9.124;2022-09-03T10:15:02;4.20;;;2.78;;
55913;SDS011;58179;48.776;9.124;2022-09-03T10:17:52;4.00;;;2.72;;
55913;SDS011;58179;48.776;9.124;2022-09-03T10:20:32;4.72;;;2.83;;
55913;SDS011;58179;48.776;9.124;2022-09-03T10:23:12;8.57;;;3.08;;
55913;SDS011;58179;48.776;9.124;2022-09-03T10:25:45;6.65;;;3.50;;
55913;SDS011;58179;48.776;9.124;2022-09-03T10:28:27;6.20;;;2.97;;
55913;SDS011;58179;48.776;9.124;2022-09-03T10:30:58;5.27;;;2.73;;
55913;SDS011;58179;48.776;9.124;2022-09-03T10:33:43;6.07;;;3.58;;
55913;SDS011;58179;48.776;9.124;2022-09-03T10:36:16;6.80;;;3.33;;
55913;SDS011;58179;48.776;9.124;2022-09-03T10:38:52;7.03;;;3.00;;
55913;SDS011;58179;48.776;9.124;2022-09-03T10:41:32;4.07;;;2.60;;
55913;SDS011;58179;48.776;9.124;2022-09-03T10:47:08;6.20;;;4.00;;
55913;SDS011;58179;48.776;9.124;2022-09-03T10:49:49;5.68;;;3.63;;
55913;SDS011;58179;48.776;9.124;2022-09-03T10:52:28;5.40;;;3.25;;
55913;SDS011;58179;48.776;9.124;2022-09-03T10:55:17;4.75;;;3.38;;
55913;SDS011;58179;48.776;9.124;2022-09-03T10:57:50;5.07;;;3.23;;
55913;SDS011;58179;48.776;9.124;2022-09-03T11:00:48;5.65;;;3.10;;
55913;SDS011;58179;48.776;9.124;2022-09-03T11:03:26;6.15;;;3.20;;
55913;SDS011;58179;48.776;9.124;2022-09-03T11:06:10;4.10;;;2.60;;
55913;SDS011;58179;48.776;9.124;2022-09-03T11:08:45;4.57;;;2.72;;
55913;SDS011;58179;48.776;9.124;2022-09-03T11:11:19;4.55;;;3.15;;
55913;SDS011;58179;48.776;9.124;2022-09-03T11:13:51;6.07;;;3.30;;
55913;SDS011;58179;48.776;9.124;2022-09-03T11:16:24;3.83;;;2.85;;
55913;SDS011;58179;48.776;9.124;2022-09-03T11:18:56;8.63;;;3.55;;
55913;SDS011;58179;48.776;9.124;2022-09-03T11:21:29;5.05;;;3.28;;
55913;SDS011;58179;48.776;9.124;2022-09-03T11:24:03;4.65;;;3.15;;
55913;SDS011;58179;48.776;9.124;2022-09-03T11:26:37;5.85;;;3.55;;
55913;SDS011;58179;48.776;9.124;2022-09-03T11:29:08;5.38;;;3.20;;
55913;SDS011;58179;48.776;9.124;2022-09-03T11:31:48;8.00;;;3.03;;
55913;SDS011;58179;48.776;9.124;2022-09-03T11:34:28;5.75;;;3.60;;
55913;SDS011;58179;48.776;9.124;2022-09-03T11:39:53;7.38;;;3.85;;
55913;SDS011;58179;48.776;9.124;2022-09-03T11:42:29;7.95;;;3.80;;
55913;SDS011;58179;48.776;9.124;2022-09-03T11:45:00;5.85;;;3.65;;
55913;SDS011;58179;48.776;9.124;2022-09-03T11:47:47;7.43;;;3.45;;
55913;SDS011;58179;48.776;9.124;2022-09-03T11:50:16;7.38;;;3.67;;
55913;SDS011;58179;48.776;9.124;2022-09-03T11:52:46;10.57;;;3.92;;
55913;SDS011;58179;48.776;9.124;2022-09-03T11:55:30;6.45;;;3.55;;
55913;SDS011;58179;48.776;9.124;2022-09-03T11:58:15;5.20;;;3.38;;
55913;SDS011;58179;48.776;9.124;2022-09-03T12:00:49;5.10;;;3.55;;
55913;SDS011;58179;48.776;9.124;2022-09-03T12:03:20;7.10;;;4.18;;
55913;SDS011;58179;48.776;9.124;2022-09-03T12:05:56;6.80;;;3.70;;
55913;SDS011;58179;48.776;9.124;2022-09-03T12:08:43;6.65;;;4.22;;
55913;SDS011;58179;48.776;9.124;2022-09-03T12:11:36;4.90;;;3.90;;
55913;SDS011;58179;48.776;9.124;2022-09-03T12:14:17;7.53;;;4.10;;
55913;SDS011;58179;48.776;9.124;2022-09-03T12:16:56;6.93;;;3.72;;
55913;SDS011;58179;48.776;9.124;2022-09-03T12:19:49;4.78;;;3.40;;
55913;SDS011;58179;48.776;9.124;2022-09-03T12:22:19;4.65;;;3.40;;
55913;SDS011;58179;48.776;9.124;2022-09-03T12:24:48;5.82;;;3.50;;
55913;SDS011;58179;48.776;9.124;2022-09-03T12:27:17;9.75;;;4.10;;
55913;SDS011;58179;48.776;9.124;2022-09-03T12:29:51;5.95;;;3.92;;
55913;SDS011;58179;48.776;9.124;2022-09-03T12:32:24;6.30;;;4.38;;
55913;SDS011;58179;48.776;9.124;2022-09-03T12:34:52;9.20;;;4.43;;
55913;SDS011;58179;48.776;9.124;2022-09-03T12:37:19;12.32;;;4.55;;
55913;SDS011;58179;48.776;9.124;2022-09-03T12:39:51;7.60;;;4.32;;
55913;SDS011;58179;48.776;9.124;2022-09-03T12:42:21;13.13;;;4.82;;
55913;SDS011;58179;48.776;9.124;2022-09-03T12:44:50;11.65;;;4.25;;
55913;SDS011;58179;48.776;9.124;2022-09-03T12:47:17;9.90;;;4.20;;
55913;SDS011;58179;48.776;9.124;2022-09-03T12:49:46;12.53;;;4.80;;
55913;SDS011;58179;48.776;9.124;2022-09-03T12:52:15;15.98;;;5.70;;
55913;SDS011;58179;48.776;9.124;2022-09-03T12:54:47;14.45;;;6.05;;
55913;SDS011;58179;48.776;9.124;2022-09-03T12:57:22;15.80;;;6.40;;
55913;SDS011;58179;48.776;9.124;2022-09-03T12:59:53;11.30;;;4.50;;
55913;SDS011;58179;48.776;9.124;2022-09-03T13:02:27;13.32;;;5.80;;
55913;SDS011;58179;48.776;9.124;2022-09-03T13:05:03;16.80;;;6.63;;
55913;SDS011;58179;48.776;9.124;2022-09-03T13:07:34;23.13;;;7.35;;
55913;SDS011;58179;48.776;9.124;2022-09-03T13:10:02;14.50;;;6.47;;
55913;SDS011;58179;48.776;9.124;2022-09-03T13:12:40;18.58;;;6.75;;
55913;SDS011;58179;48.776;9.124;2022-09-03T13:15:17;14.07;;;6.68;;
55913;SDS011;58179;48.776;9.124;2022-09-03T13:18:02;14.63;;;6.20;;
55913;SDS011;58179;48.776;9.124;2022-09-03T13:20:51;13.30;;;6.22;;
55913;SDS011;58179;48.776;9.124;2022-09-03T13:23:38;18.67;;;7.82;;
55913;SDS011;58179;48.776;9.124;2022-09-03T13:26:32;19.35;;;7.18;;
55913;SDS011;58179;48.776;9.124;2022-09-03T13:29:21;18.90;;;7.18;;
55913;SDS011;58179;48.776;9.124;2022-09-03T13:32:16;13.30;;;6.50;;
55913;SDS011;58179;48.776;9.124;2022-09-03T13:34:53;18.77;;;7.55;;
55913;SDS011;58179;48.776;9.124;2022-09-03T13:37:26;7.87;;;5.17;;
55913;SDS011;58179;48.776;9.124;2022-09-03T13:39:58;5.75;;;3.00;;
55913;SDS011;58179;48.776;9.124;2022-09-03T13:42:35;4.88;;;2.45;;
55913;SDS011;58179;48.776;9.124;2022-09-03T13:45:10;3.95;;;2.30;;
55913;SDS011;58179;48.776;9.124;2022-09-03T13:47:48;8.85;;;2.50;;
55913;SDS011;58179;48.776;9.124;2022-09-03T13:50:43;5.85;;;2.88;;
55913;SDS011;58179;48.776;9.124;2022-09-03T13:53:16;5.63;;;2.42;;
55913;SDS011;58179;48.776;9.124;2022-09-03T13:55:49;5.10;;;2.47;;
55913;SDS011;58179;48.776;9.124;2022-09-03T13:58:20;7.10;;;2.60;;
55913;SDS011;58179;48.776;9.124;2022-09-03T14:01:03;8.27;;;2.60;;
55913;SDS011;58179;48.776;9.124;2022-09-03T14:03:42;5.75;;;2.60;;
55913;SDS011;58179;48.776;9.124;2022-09-03T14:06:12;5.13;;;2.57;;
55913;SDS011;58179;48.776;9.124;2022-09-03T14:08:54;3.10;;;2.00;;
55913;SDS011;58179;48.776;9.124;2022-09-03T14:11:31;5.10;;;1.80;;
55913;SDS011;58179;48.776;9.124;2022-09-03T14:14:12;4.88;;;2.03;;
55913;SDS011;58179;48.776;9.124;2022-09-03T14:16:55;6.30;;;2.10;;
55913;SDS011;58179;48.776;9.124;2022-09-03T14:19:34;6.50;;;2.20;;
55913;SDS011;58179;48.776;9.124;2022-09-03T14:22:08;2.90;;;1.80;;
55913;SDS011;58179;48.776;9.124;2022-09-03T14:24:43;2.83;;;1.92;;
55913;SDS011;58179;48.776;9.124;2022-09-03T14:27:21;3.42;;;1.70;;
55913;SDS011;58179;48.776;9.124;2022-09-03T14:29:50;3.20;;;2.10;;
55913;SDS011;58179;48.776;9.124;2022-09-03T14:32:26;3.70;;;2.00;;
55913;SDS011;58179;48.776;9.124;2022-09-03T14:35:12;3.93;;;2.10;;
55913;SDS011;58179;48.776;9.124;2022-09-03T14:38:12;3.88;;;1.98;;
55913;SDS011;58179;48.776;9.124;2022-09-03T14:41:19;4.90;;;2.00;;
55913;SDS011;58179;48.776;9.124;2022-09-03T14:44:14;6.03;;;2.10;;
55913;SDS011;58179;48.776;9.124;2022-09-03T14:47:15;2.78;;;1.88;;
55913;SDS011;58179;48.776;9.124;2022-09-03T14:50:18;2.92;;;1.60;;
55913;SDS011;58179;48.776;9.124;2022-09-03T14:53:00;4.68;;;1.63;;
55913;SDS011;58179;48.776;9.124;2022-09-03T14:55:52;3.75;;;1.70;;
55913;SDS011;58179;48.776;9.124;2022-09-03T14:58:34;1.80;;;1.30;;
55913;SDS011;58179;48.776;9.124;2022-09-03T15:01:18;4.75;;;1.65;;
55913;SDS011;58179;48.776;9.124;2022-09-03T15:04:06;2.20;;;1.50;;
55913;SDS011;58179;48.776;9.124;2022-09-03T15:07:29;2.47;;;1.60;;
55913;SDS011;58179;48.776;9.124;2022-09-03T15:10:03;2.60;;;1.52;;
55913;SDS011;58179;48.776;9.124;2022-09-03T15:12:41;3.00;;;1.48;;
55913;SDS011;58179;48.776;9.124;2022-09-03T15:15:15;2.40;;;1.30;;
55913;SDS011;58179;48.776;9.124;2022-09-03T15:17:59;3.65;;;1.38;;
55913;SDS011;58179;48.776;9.124;2022-09-03T15:20:44;1.60;;;1.30;;
55913;SDS011;58179;48.776;9.124;2022-09-03T15:26:24;2.80;;;1.40;;
55913;SDS011;58179;48.776;9.124;2022-09-03T15:32:17;2.75;;;1.48;;
55913;SDS011;58179;48.776;9.124;2022-09-03T15:35:03;3.22;;;1.40;;
55913;SDS011;58179;48.776;9.124;2022-09-03T15:37:35;4.40;;;1.80;;